Weather at Bielsko-Biała Kaniów Airfield

Public forecast

Using degrees Celsius for public forecast. Weather courtesy of forecast.io.

Closest aviation weather report (METAR) to Bielsko-Biała Kaniów Airfield

Closest report is Kraków John Paul II International Airport, 30.6 nm (56.7 km) ENE.

2024/05/19 09:00 (retrieved 16 minutes ago)

EPKK 190900Z 08003KT 020V150 9999 FEW040 21/10 Q1013

Closest aviation forecast (TAF) to Bielsko-Biała Kaniów Airfield

Closest forecast is Kraków John Paul II International Airport, 30.6 nm (56.7 km) ENE.

2024/05/19 09:37 (retrieved 0 seconds ago)

TAF EPKK 190830Z 1909/2009 08002KT CAVOK TEMPO 1909/1921 4000 SHRA BKN035CB PROB40 TEMPO 1911/1920 VRB15G25KT 2000 TSRA BECMG 1921/1924 3000 BR TEMPO 2000/2004 1200 BR BECMG 2004/2007 CAVOK